NCAR-RAP Real-Time Weather Data

Output produced by METARs form (23 February 2020  01:34 UTC)
found at http://weather.rap.ucar.edu/surface/
 
KDSM 230054Z 19009KT 10SM CLR 06/M02 A2998 RMK AO2 SLP160 T00611017
KDSM 222354Z 20017G24KT 10SM FEW250 09/M01 A2997 RMK AO2 SLP156 T00891011 10117 20078 55005
KDSM 222254Z 19013KT 10SM FEW300 11/M01 A2997 RMK AO2 SLP154 T01061011
KDSM 222154Z 19012KT 10SM FEW250 12/M01 A2998 RMK AO2 SLP157 T01171011
KDSM 222054Z 20012G23KT 10SM FEW180 FEW250 12/M01 A2999 RMK AO2 SLP160 T01171011 56033
KDSM 221954Z 18014KT 10SM FEW180 FEW250 12/M01 A3001 RMK AO2 SLP166 T01171011
KDSM 221854Z 20011KT 10SM FEW180 SCT250 10/M02 A3004 RMK AO2 SLP180 T01001022
KDSM 221754Z 18010KT 10SM FEW180 SCT250 08/M03 A3009 RMK AO2 SLP195 T00831033 10083 21028 58023
KDSM 221654Z 22011KT 10SM FEW200 FEW250 06/M04 A3012 RMK AO2 SLP206 T00611044
KDSM 221554Z 21012KT 10SM FEW180 FEW250 04/M06 A3014 RMK AO2 SLP213 T00391056
KDSM 221454Z 21008KT 10SM FEW250 01/M07 A3016 RMK AO2 SLP220 T00061067 56002
KDSM 221354Z 19008KT 10SM FEW250 M02/M07 A3016 RMK AO2 SLP221 T10221072
KDSM 221254Z 20008KT 10SM FEW250 M02/M08 A3015 RMK AO2 SLP220 T10221078
KDSM 221154Z 20010KT 10SM CLR M01/M07 A3016 RMK AO2 SLP223 T10111072 10006 21022 57006
KDSM 221054Z 19007KT 10SM CLR M02/M07 A3017 RMK AO2 SLP225 T10221072
KDSM 220954Z 21008KT 10SM CLR M01/M07 A3018 RMK AO2 SLP226 T10111067
KDSM 220854Z 21009KT 10SM CLR M01/M06 A3018 RMK AO2 SLP229 T10061061 56016
KDSM 220754Z 21010KT 10SM CLR M01/M06 A3020 RMK AO2 SLP233 T10061061
KDSM 220654Z 22012KT 10SM CLR 00/M06 A3021 RMK AO2 SLP239 T00001061
KDSM 220554Z 21012KT 10SM CLR 01/M06 A3023 RMK AO2 SLP247 T00061061 10044 20000 400671094 56012
KDSM 220454Z 20009KT 10SM CLR 01/M07 A3025 RMK AO2 SLP251 T00061067
KDSM 220354Z 21010KT 10SM CLR 01/M07 A3026 RMK AO2 SLP255 T00111067
KDSM 220254Z 22006KT 10SM CLR 01/M07 A3027 RMK AO2 SLP261 T00111072 51002
KDSM 220154Z 18009KT 10SM CLR 02/M07 A3026 RMK AO2 SLP260 T00221067
KDSM 220054Z 20012G17KT 10SM CLR 03/M07 A3027 RMK AO2 SLP263 T00331067
KDSM 212354Z 20010KT 10SM CLR 04/M06 A3026 RMK AO2 PK WND 22026/2256 SLP260 T00441061 10067 20033 55021
KDSM 212254Z 21014G23KT 10SM FEW250 06/M06 A3026 RMK AO2 PK WND 21030/2157 SLP257 T00561061
KDSM 212154Z 20017G25KT 10SM FEW250 07/M06 A3028 RMK AO2 PK WND 22033/2140 SLP263 T00671061
KDSM 212054Z 22014G29KT 10SM FEW250 07/M07 A3033 RMK AO2 PK WND 22029/2048 SLP280 T00671067 56038
KDSM 211954Z 22020G29KT 10SM FEW250 06/M08 A3034 RMK AO2 PK WND 22030/1936 SLP286 T00561083
KDSM 211854Z 21018G25KT 10SM FEW250 05/M10 A3040 RMK AO2 PK WND 22029/1842 SLP306 T00501100
KDSM 211754Z 22017G27KT 10SM FEW250 03/M11 A3044 RMK AO2 PK WND 22027/1746 SLP320 T00331106 10033 21078 58022
KDSM 211654Z 22017G27KT 10SM CLR 02/M11 A3046 RMK AO2 PK WND 21027/1645 SLP329 T00171106
KDSM 211554Z 22014KT 10SM CLR M01/M11 A3049 RMK AO2 SLP337 T10111106
KDSM 211454Z 21010KT 10SM CLR M04/M11 A3051 RMK AO2 SLP346 T10391106 56010
KDSM 211354Z 20010KT 10SM CLR M07/M12 A3051 RMK AO2 SLP347 T10721117
KDSM 211254Z 20010KT 10SM CLR M08/M13 A3052 RMK AO2 SLP351 T10781128
KDSM 211154Z 21008KT 10SM CLR M08/M13 A3054 RMK AO2 SLP357 T10781128 11078 21094 56018
KDSM 211054Z 21006KT 10SM CLR M08/M13 A3055 RMK AO2 SLP361 T10831128
KDSM 210954Z 20007KT 10SM CLR M08/M13 A3056 RMK AO2 SLP366 T10831128
KDSM 210854Z 19006KT 10SM CLR M09/M14 A3059 RMK AO2 SLP376 T10941139 58019
KDSM 210754Z 19005KT 10SM CLR M09/M14 A3062 RMK AO2 SLP385 T10891144
KDSM 210654Z 19007KT 10SM CLR M09/M14 A3064 RMK AO2 SLP392 T10891144
KDSM 210554Z 20007KT 10SM CLR M08/M15 A3065 RMK AO2 SLP397 T10831150 11061 21094 410501161 58013
KDSM 210454Z 18007KT 10SM CLR M09/M15 A3067 RMK AO2 SLP403 T10891150
KDSM 210354Z 18006KT 10SM CLR M09/M16 A3069 RMK AO2 SLP411 T10891156
KDSM 210254Z 18006KT 10SM CLR M08/M15 A3069 RMK AO2 SLP413 T10831150 58004
KDSM 210154Z 17004KT 10SM CLR M07/M17 A3070 RMK AO2 SLP417 T10721167